Terminal Aerodrome Forecast
Issued by NWS

Home | Current Version | Previous Version | Text Only | Print | Product List | Glossary On
Versions: 1 2 3 4 5 6 7 8 9 10 11 12 13 14 15 16 17 18 19 20 21 22 23 24 25 26 27 28 29
000
FTUS41 KCTP 230555
TAFAOO
TAF
KAOO 230555Z 2306/2406 13005KT 4SM BR OVC005
     FM231000 14005KT 3SM -RA BR OVC003
     FM231500 16007KT 1SM -RA BR OVC007
     FM231800 21010G15KT 2SM -RA BR OVC003 WS020/23042KT=

USA.gov is the U.S. government's official web portal to all federal, state and local government web resources and services.